Time;durP1;ratioP1;P1;durP2;ratioP2;P2;SDS_P1;SDS_P2;PMS_P1;PMS_P2;Temp;Humidity;BMP_temperature;BMP_pressure;BME280_temperature;BME280_humidity;BME280_pressure;Samples;Min_cycle;Max_cycle;Signal;HPM_P1;HPM_P2
2021/09/11 00:02:02;;;;;;;8.38;7.50;;;;;;;;;;5090128;28;20034;-73
2021/09/11 00:04:28;;;;;;;10.10;8.02;;;;;;;;;;5086766;28;20024;-70
2021/09/11 00:06:55;;;;;;;10.02;7.75;;;;;;;;;;5089912;28;20568;-73
2021/09/11 00:09:21;;;;;;;9.98;8.90;;;;;;;;;;5092690;28;20008;-73
2021/09/11 00:11:47;;;;;;;12.38;9.30;;;;;;;;;;5086135;28;20048;-73
2021/09/11 00:14:13;;;;;;;11.48;9.48;;;;;;;;;;5096586;28;20027;-73
2021/09/11 00:16:39;;;;;;;11.05;9.80;;;;;;;;;;5092171;28;20522;-73
2021/09/11 00:19:05;;;;;;;12.93;9.82;;;;;;;;;;5093451;28;20108;-71
2021/09/11 00:21:31;;;;;;;11.95;9.45;;;;;;;;;;5101165;28;20039;-74
2021/09/11 00:23:58;;;;;;;11.27;9.70;;;;;;;;;;5100159;28;20016;-73
2021/09/11 00:26:24;;;;;;;10.98;9.80;;;;;;;;;;5097902;28;20023;-74
2021/09/11 00:28:51;;;;;;;14.68;10.77;;;;;;;;;;5095926;28;20018;-73
2021/09/11 00:31:17;;;;;;;11.52;10.38;;;;;;;;;;5094606;28;20020;-73
2021/09/11 00:33:43;;;;;;;13.35;11.00;;;;;;;;;;5098289;28;20011;-71
2021/09/11 00:36:10;;;;;;;14.23;11.57;;;;;;;;;;5103098;28;20028;-73
2021/09/11 00:38:36;;;;;;;11.77;10.57;;;;;;;;;;5098226;28;20024;-71
2021/09/11 00:41:02;;;;;;;13.93;12.00;;;;;;;;;;5096106;28;20655;-74
2021/09/11 00:43:30;;;;;;;13.48;11.43;;;;;;;;;;5093303;28;20639;-73
2021/09/11 00:45:57;;;;;;;13.15;11.63;;;;;;;;;;5094782;28;20602;-74
2021/09/11 00:48:23;;;;;;;12.98;11.38;;;;;;;;;;5076008;28;21976;-71
2021/09/11 00:50:49;;;;;;;17.10;12.55;;;;;;;;;;5095821;28;20024;-74
2021/09/11 00:53:16;;;;;;;16.02;12.13;;;;;;;;;;5094157;28;20024;-73
2021/09/11 00:55:43;;;;;;;13.32;11.57;;;;;;;;;;5090538;28;20024;-74
2021/09/11 00:58:09;;;;;;;15.43;12.05;;;;;;;;;;5096079;28;20012;-74
2021/09/11 01:00:35;;;;;;;12.43;10.98;;;;;;;;;;5093454;28;20035;-72
2021/09/11 01:03:01;;;;;;;12.77;11.32;;;;;;;;;;5096292;28;20035;-74
2021/09/11 01:05:27;;;;;;;11.75;10.43;;;;;;;;;;5090404;28;20032;-71
2021/09/11 01:07:53;;;;;;;13.02;11.63;;;;;;;;;;5095125;28;20601;-73
2021/09/11 01:10:20;;;;;;;14.77;10.45;;;;;;;;;;5098119;28;20039;-72
2021/09/11 01:12:47;;;;;;;10.55;9.50;;;;;;;;;;5089931;28;20101;-73
2021/09/11 01:15:13;;;;;;;12.20;10.02;;;;;;;;;;5091117;28;20107;-74
2021/09/11 01:17:40;;;;;;;14.07;10.15;;;;;;;;;;5092382;28;20047;-74
2021/09/11 01:20:07;;;;;;;12.02;9.93;;;;;;;;;;5087999;28;20024;-73
2021/09/11 01:22:33;;;;;;;12.50;10.52;;;;;;;;;;5095690;28;20032;-73
2021/09/11 01:25:00;;;;;;;11.98;9.30;;;;;;;;;;5090436;28;20020;-74
2021/09/11 01:27:27;;;;;;;11.02;9.70;;;;;;;;;;5090340;28;20050;-74
2021/09/11 01:29:53;;;;;;;11.80;9.50;;;;;;;;;;5095850;28;20605;-74
2021/09/11 01:32:20;;;;;;;12.15;9.95;;;;;;;;;;5087834;28;20495;-74
2021/09/11 01:34:46;;;;;;;13.77;9.48;;;;;;;;;;5091097;28;20648;-73
2021/09/11 01:37:12;;;;;;;11.23;9.48;;;;;;;;;;5088784;28;20052;-72
2021/09/11 01:39:38;;;;;;;13.77;8.77;;;;;;;;;;5092113;28;20031;-74
2021/09/11 01:42:07;;;;;;;11.13;8.95;;;;;;;;;;5093415;28;20032;-74
2021/09/11 01:44:34;;;;;;;11.35;9.02;;;;;;;;;;5092222;28;20020;-74
2021/09/11 01:47:00;;;;;;;11.68;8.63;;;;;;;;;;5086716;28;20472;-73
2021/09/11 01:49:26;;;;;;;10.13;8.38;;;;;;;;;;5087416;28;20537;-72
2021/09/11 01:51:52;;;;;;;11.93;8.13;;;;;;;;;;5092738;28;20396;-74
2021/09/11 01:54:18;;;;;;;9.18;8.27;;;;;;;;;;5092885;28;20028;-73
2021/09/11 01:56:44;;;;;;;10.50;8.48;;;;;;;;;;5087130;28;20028;-73
2021/09/11 01:59:11;;;;;;;12.02;8.93;;;;;;;;;;5092621;28;20023;-74
2021/09/11 02:01:37;;;;;;;9.32;8.43;;;;;;;;;;5070642;28;20040;-73
2021/09/11 02:04:03;;;;;;;10.95;9.13;;;;;;;;;;5090764;28;20036;-72
2021/09/11 02:06:29;;;;;;;14.63;9.63;;;;;;;;;;5093252;28;20061;-74
2021/09/11 02:08:55;;;;;;;13.80;9.07;;;;;;;;;;5090581;28;20018;-74
2021/09/11 02:11:21;;;;;;;10.57;9.43;;;;;;;;;;5042454;28;1300814;-73
2021/09/11 02:13:47;;;;;;;13.65;9.57;;;;;;;;;;5090673;27;20046;-73
2021/09/11 02:16:13;;;;;;;11.60;9.50;;;;;;;;;;5093602;28;20012;-74
2021/09/11 02:18:40;;;;;;;11.52;9.55;;;;;;;;;;5088749;28;20054;-73
2021/09/11 02:21:06;;;;;;;12.73;9.15;;;;;;;;;;5094158;28;20032;-71
2021/09/11 02:23:32;;;;;;;12.18;8.82;;;;;;;;;;5099020;28;20027;-72
2021/09/11 02:25:58;;;;;;;11.05;9.10;;;;;;;;;;5090457;28;20081;-73
2021/09/11 02:28:24;;;;;;;12.30;9.52;;;;;;;;;;5093964;28;20036;-72
2021/09/11 02:30:50;;;;;;;12.00;9.80;;;;;;;;;;5095394;28;20031;-73
2021/09/11 02:33:16;;;;;;;12.65;10.35;;;;;;;;;;5093593;28;20020;-73
2021/09/11 02:35:43;;;;;;;16.98;10.10;;;;;;;;;;5095790;28;20091;-73
2021/09/11 02:38:09;;;;;;;14.77;10.45;;;;;;;;;;5092443;28;20027;-73
2021/09/11 02:40:35;;;;;;;13.55;11.25;;;;;;;;;;5098023;28;20045;-72
2021/09/11 02:43:01;;;;;;;12.90;11.60;;;;;;;;;;5094108;28;20028;-73
2021/09/11 02:45:27;;;;;;;12.45;11.18;;;;;;;;;;5089026;28;20399;-71
2021/09/11 02:47:53;;;;;;;13.85;10.77;;;;;;;;;;5089893;28;20057;-73
2021/09/11 02:50:19;;;;;;;13.30;11.52;;;;;;;;;;5095348;27;20038;-74
2021/09/11 02:52:45;;;;;;;11.90;10.80;;;;;;;;;;5092199;28;20036;-73
2021/09/11 02:55:12;;;;;;;11.77;10.55;;;;;;;;;;5091170;28;20034;-74
2021/09/11 02:57:38;;;;;;;13.60;11.65;;;;;;;;;;5096441;28;20015;-74
2021/09/11 03:00:04;;;;;;;14.32;11.20;;;;;;;;;;5089645;28;20024;-74
2021/09/11 03:02:30;;;;;;;15.48;11.73;;;;;;;;;;5089483;28;20032;-74
2021/09/11 03:04:56;;;;;;;13.90;11.32;;;;;;;;;;5091120;28;20186;-73
2021/09/11 03:07:22;;;;;;;13.68;11.52;;;;;;;;;;5084516;28;20214;-73
2021/09/11 03:09:49;;;;;;;12.95;11.18;;;;;;;;;;5088093;28;20012;-73
2021/09/11 03:12:15;;;;;;;12.70;11.50;;;;;;;;;;5087298;28;20503;-73
2021/09/11 03:14:41;;;;;;;13.75;12.23;;;;;;;;;;5087670;28;20069;-74
2021/09/11 03:17:07;;;;;;;17.15;12.48;;;;;;;;;;5084326;28;20031;-73
2021/09/11 03:19:33;;;;;;;14.95;13.30;;;;;;;;;;5088616;28;20506;-74
2021/09/11 03:21:59;;;;;;;17.67;13.23;;;;;;;;;;5085763;28;20036;-74
2021/09/11 03:24:25;;;;;;;14.93;13.43;;;;;;;;;;5097385;27;20038;-73
2021/09/11 03:26:52;;;;;;;18.50;14.50;;;;;;;;;;5083496;28;20027;-74
2021/09/11 03:29:18;;;;;;;21.58;15.05;;;;;;;;;;5094735;28;20034;-74
2021/09/11 03:31:44;;;;;;;27.85;15.55;;;;;;;;;;5086645;28;20035;-74
2021/09/11 03:34:10;;;;;;;27.30;17.48;;;;;;;;;;5085215;28;20066;-73
2021/09/11 03:36:36;;;;;;;19.50;10.77;;;;;;;;;;5089450;28;20104;-72
2021/09/11 03:39:02;;;;;;;14.85;7.70;;;;;;;;;;5083344;28;20032;-74
2021/09/11 03:41:29;;;;;;;13.45;6.80;;;;;;;;;;5086718;28;20588;-73
2021/09/11 03:43:55;;;;;;;9.90;5.15;;;;;;;;;;5088974;28;20016;-74
2021/09/11 03:46:21;;;;;;;12.40;6.53;;;;;;;;;;5085454;28;20092;-74
2021/09/11 03:48:47;;;;;;;7.38;5.20;;;;;;;;;;5085786;28;20859;-73
2021/09/11 03:51:13;;;;;;;11.68;5.05;;;;;;;;;;5081905;28;20400;-74
2021/09/11 03:53:40;;;;;;;9.57;4.82;;;;;;;;;;5085232;28;20023;-74
2021/09/11 03:56:06;;;;;;;12.02;5.55;;;;;;;;;;5082440;28;20032;-73
2021/09/11 03:58:33;;;;;;;12.18;6.85;;;;;;;;;;5087208;28;20416;-73
2021/09/11 04:01:01;;;;;;;12.60;7.90;;;;;;;;;;5085244;28;20592;-74
2021/09/11 04:03:28;;;;;;;13.07;8.48;;;;;;;;;;5084989;28;20032;-74
2021/09/11 04:05:54;;;;;;;11.88;8.65;;;;;;;;;;5082912;28;20028;-74
2021/09/11 04:08:20;;;;;;;8.75;7.47;;;;;;;;;;5083167;28;20039;-74
2021/09/11 04:10:46;;;;;;;8.32;7.35;;;;;;;;;;5086461;28;20818;-74
2021/09/11 04:13:12;;;;;;;15.57;7.90;;;;;;;;;;5069487;28;20429;-74
2021/09/11 04:15:39;;;;;;;12.95;7.90;;;;;;;;;;5088057;28;20421;-74
2021/09/11 04:18:05;;;;;;;11.07;8.80;;;;;;;;;;5085114;28;20736;-74
2021/09/11 04:20:31;;;;;;;17.52;9.60;;;;;;;;;;5086543;28;20044;-74
2021/09/11 04:22:57;;;;;;;13.82;9.82;;;;;;;;;;5088716;28;20022;-73
2021/09/11 04:25:23;;;;;;;11.95;9.30;;;;;;;;;;5085325;28;20066;-75
2021/09/11 04:27:49;;;;;;;15.93;9.38;;;;;;;;;;5088029;28;20027;-73
2021/09/11 04:30:15;;;;;;;13.82;9.55;;;;;;;;;;5086332;28;20024;-73
2021/09/11 04:32:42;;;;;;;13.32;10.25;;;;;;;;;;5086286;28;20541;-74
2021/09/11 04:35:08;;;;;;;16.60;9.07;;;;;;;;;;5086497;28;20092;-74
2021/09/11 04:37:34;;;;;;;14.93;9.65;;;;;;;;;;5090174;28;20023;-74
2021/09/11 04:40:00;;;;;;;11.90;9.55;;;;;;;;;;5089204;28;20028;-73
2021/09/11 04:42:26;;;;;;;13.82;9.30;;;;;;;;;;5083878;28;20030;-74
2021/09/11 04:44:53;;;;;;;11.70;9.30;;;;;;;;;;5087893;28;20169;-75
2021/09/11 04:47:19;;;;;;;11.07;9.32;;;;;;;;;;5084814;28;20484;-75
2021/09/11 04:49:45;;;;;;;13.77;10.75;;;;;;;;;;5087019;28;20468;-74
2021/09/11 04:52:11;;;;;;;13.30;10.15;;;;;;;;;;5070331;28;20401;-75
2021/09/11 04:54:37;;;;;;;16.77;10.68;;;;;;;;;;5086795;28;20024;-75
2021/09/11 04:57:03;;;;;;;15.98;10.75;;;;;;;;;;5069834;28;20028;-75
2021/09/11 04:59:30;;;;;;;11.50;10.27;;;;;;;;;;5092671;28;20047;-75
2021/09/11 05:01:57;;;;;;;14.02;10.52;;;;;;;;;;5090823;28;20032;-73
2021/09/11 05:04:23;;;;;;;17.15;11.05;;;;;;;;;;5092421;28;20065;-75
2021/09/11 05:06:49;;;;;;;11.68;10.48;;;;;;;;;;5074348;28;20106;-75
2021/09/11 05:09:15;;;;;;;15.40;11.32;;;;;;;;;;5091786;28;20356;-74
2021/09/11 05:11:41;;;;;;;13.40;12.10;;;;;;;;;;5086882;28;20051;-73
2021/09/11 05:14:08;;;;;;;12.48;11.18;;;;;;;;;;5089018;28;20516;-75
2021/09/11 05:16:34;;;;;;;13.43;11.82;;;;;;;;;;5091419;28;20085;-75
2021/09/11 05:19:00;;;;;;;14.82;11.45;;;;;;;;;;5091458;28;20084;-75
2021/09/11 05:21:26;;;;;;;13.60;11.43;;;;;;;;;;5097735;27;20075;-75
2021/09/11 05:23:52;;;;;;;15.20;11.90;;;;;;;;;;5089158;28;20048;-74
2021/09/11 05:26:18;;;;;;;13.48;11.38;;;;;;;;;;5087827;27;20028;-76
2021/09/11 05:28:45;;;;;;;16.95;12.32;;;;;;;;;;5090394;28;20032;-74
2021/09/11 05:31:11;;;;;;;18.58;13.18;;;;;;;;;;5092036;28;20032;-74
2021/09/11 05:33:37;;;;;;;17.33;11.98;;;;;;;;;;5089476;28;20488;-75
2021/09/11 05:36:03;;;;;;;20.60;13.15;;;;;;;;;;5090003;28;20330;-73
2021/09/11 05:38:30;;;;;;;17.88;13.63;;;;;;;;;;5089172;28;20589;-72
2021/09/11 05:40:57;;;;;;;16.10;12.15;;;;;;;;;;5089530;28;20054;-73
2021/09/11 05:43:24;;;;;;;16.13;13.13;;;;;;;;;;5096902;27;20086;-74
2021/09/11 05:45:50;;;;;;;16.15;12.70;;;;;;;;;;5085740;28;20028;-73
2021/09/11 05:48:16;;;;;;;13.25;11.88;;;;;;;;;;5085960;28;20020;-73
2021/09/11 05:50:42;;;;;;;15.88;12.98;;;;;;;;;;5084800;28;20414;-73
2021/09/11 05:53:09;;;;;;;16.95;12.93;;;;;;;;;;5096259;27;20023;-72
2021/09/11 05:55:35;;;;;;;18.65;12.75;;;;;;;;;;5090720;28;20047;-75
2021/09/11 05:58:01;;;;;;;16.88;12.25;;;;;;;;;;5085561;28;20024;-74
2021/09/11 06:00:28;;;;;;;18.90;13.60;;;;;;;;;;5084835;28;20089;-74
2021/09/11 06:02:54;;;;;;;13.00;11.50;;;;;;;;;;5095407;27;20720;-75
2021/09/11 06:05:20;;;;;;;18.85;14.35;;;;;;;;;;5094896;27;20024;-75
2021/09/11 06:07:46;;;;;;;13.10;10.90;;;;;;;;;;5085722;28;20810;-75
2021/09/11 06:10:13;;;;;;;17.92;13.15;;;;;;;;;;5094203;28;20716;-75
2021/09/11 06:12:39;;;;;;;14.57;12.98;;;;;;;;;;5096119;27;20035;-72
2021/09/11 06:15:06;;;;;;;14.75;13.25;;;;;;;;;;5093619;28;20340;-73
2021/09/11 06:17:32;;;;;;;15.65;13.18;;;;;;;;;;5090594;27;20538;-73
2021/09/11 06:19:59;;;;;;;14.55;12.25;;;;;;;;;;5088874;28;20589;-72
2021/09/11 06:22:25;;;;;;;15.57;12.93;;;;;;;;;;5088095;28;20024;-74
2021/09/11 06:24:51;;;;;;;15.93;12.32;;;;;;;;;;5091383;28;20020;-72
2021/09/11 06:27:18;;;;;;;13.02;11.30;;;;;;;;;;5087726;28;20027;-73
2021/09/11 06:29:44;;;;;;;14.75;13.00;;;;;;;;;;5089866;28;20039;-74
2021/09/11 06:32:11;;;;;;;15.45;13.27;;;;;;;;;;5089822;28;20546;-74
2021/09/11 06:34:37;;;;;;;18.92;12.98;;;;;;;;;;5092673;28;20023;-72
2021/09/11 06:37:04;;;;;;;18.95;14.10;;;;;;;;;;5087971;28;20051;-73
2021/09/11 06:39:30;;;;;;;16.88;13.27;;;;;;;;;;5088695;28;20028;-73
2021/09/11 06:41:56;;;;;;;15.95;13.10;;;;;;;;;;5088867;28;20512;-72
2021/09/11 06:44:22;;;;;;;17.63;12.30;;;;;;;;;;5088461;28;20020;-73
2021/09/11 06:46:48;;;;;;;13.35;11.52;;;;;;;;;;5086829;28;20024;-72
2021/09/11 06:49:15;;;;;;;29.90;13.57;;;;;;;;;;5087098;28;20027;-73
2021/09/11 06:54:59;;;;;;;15.45;11.75;;;;;;;;;;4881112;28;20052;-95
2021/09/11 06:57:25;;;;;;;15.73;11.82;;;;;;;;;;5057780;28;20159;-95
2021/09/11 06:59:57;;;;;;;12.70;11.48;;;;;;;;;;5057422;28;20081;-95
2021/09/11 07:02:27;;;;;;;13.98;11.50;;;;;;;;;;5057698;28;20036;-96
2021/09/11 07:04:55;;;;;;;17.88;12.73;;;;;;;;;;5057821;28;20016;-96
2021/09/11 07:07:37;;;;;;;21.15;13.85;;;;;;;;;;5057768;28;20392;-95
2021/09/11 07:10:06;;;;;;;17.38;14.75;;;;;;;;;;5057313;28;20032;-94
2021/09/11 07:12:36;;;;;;;16.88;13.63;;;;;;;;;;5057371;28;20473;-94
2021/09/11 07:15:12;;;;;;;17.90;14.97;;;;;;;;;;5057558;28;20024;-95
2021/09/11 07:17:40;;;;;;;19.08;15.73;;;;;;;;;;5057210;28;20258;-95
2021/09/11 07:20:07;;;;;;;17.33;14.70;;;;;;;;;;5057625;28;20028;-94
2021/09/11 07:22:35;;;;;;;18.02;15.00;;;;;;;;;;5056951;28;20055;-95
2021/09/11 07:25:09;;;;;;;17.50;14.02;;;;;;;;;;5056938;28;20108;-95
2021/09/11 07:27:37;;;;;;;16.25;14.55;;;;;;;;;;5056826;28;20031;-94
2021/09/11 07:30:07;;;;;;;16.58;13.80;;;;;;;;;;5057308;28;20032;-95
2021/09/11 07:32:48;;;;;;;15.70;14.10;;;;;;;;;;5057011;28;20032;-95
2021/09/11 07:35:17;;;;;;;17.67;15.25;;;;;;;;;;5056723;28;20028;-95
2021/09/11 07:37:55;;;;;;;18.48;16.08;;;;;;;;;;5056874;28;20064;-96
2021/09/11 07:40:29;;;;;;;24.50;15.25;;;;;;;;;;5056792;28;20025;-96
2021/09/11 07:42:58;;;;;;;20.65;16.05;;;;;;;;;;5057438;28;20048;-95
2021/09/11 07:45:26;;;;;;;21.88;14.55;;;;;;;;;;5057279;28;20028;-95
2021/09/11 07:47:55;;;;;;;16.88;13.85;;;;;;;;;;5056678;28;20115;-94
2021/09/11 07:50:30;;;;;;;19.67;15.20;;;;;;;;;;5056510;28;20052;-94
2021/09/11 07:52:57;;;;;;;16.48;14.77;;;;;;;;;;5057490;28;20485;-95
2021/09/11 07:55:40;;;;;;;16.20;14.30;;;;;;;;;;5056568;28;20091;-95
2021/09/11 07:58:06;;;;;;;19.13;15.65;;;;;;;;;;5057524;28;20119;-96
2021/09/11 08:00:40;;;;;;;17.75;14.55;;;;;;;;;;5058304;28;20045;-96
2021/09/11 08:03:08;;;;;;;17.23;14.70;;;;;;;;;;5056663;28;20025;-96
2021/09/11 08:05:37;;;;;;;17.00;15.23;;;;;;;;;;5056888;28;20086;-95
2021/09/11 08:08:18;;;;;;;21.17;16.50;;;;;;;;;;5056795;28;20040;-95
2021/09/11 08:10:47;;;;;;;24.70;13.30;;;;;;;;;;5056868;28;20028;-95
2021/09/11 08:13:15;;;;;;;14.82;11.20;;;;;;;;;;5056697;28;20272;-95
2021/09/11 08:15:45;;;;;;;20.88;10.73;;;;;;;;;;5056563;28;20025;-95
2021/09/11 08:18:19;;;;;;;19.23;12.20;;;;;;;;;;5056467;28;20025;-95
2021/09/11 08:20:45;;;;;;;23.75;14.20;;;;;;;;;;5056183;28;20120;-95
2021/09/11 08:23:19;;;;;;;26.08;15.68;;;;;;;;;;5057310;28;20017;-95
2021/09/11 08:25:50;;;;;;;18.33;13.98;;;;;;;;;;5056377;28;20028;-94
2021/09/11 08:28:16;;;;;;;22.13;16.33;;;;;;;;;;5056567;28;20083;-95
2021/09/11 08:30:49;;;;;;;16.65;14.88;;;;;;;;;;5056268;28;20032;-95
2021/09/11 08:33:18;;;;;;;17.30;7.90;;;;;;;;;;5056497;28;20107;-95
2021/09/11 08:35:46;;;;;;;14.98;5.65;;;;;;;;;;5056323;28;20048;-95
2021/09/11 08:38:15;;;;;;;11.88;5.00;;;;;;;;;;5059762;28;20029;-95
2021/09/11 08:40:49;;;;;;;11.57;4.82;;;;;;;;;;5060220;28;20036;-95
2021/09/11 08:43:16;;;;;;;13.80;5.22;;;;;;;;;;5060360;28;20024;-96
2021/09/11 08:45:57;;;;;;;17.38;6.43;;;;;;;;;;5060851;28;20457;-95
2021/09/11 08:48:26;;;;;;;18.07;5.40;;;;;;;;;;5060408;28;20380;-95
2021/09/11 08:50:55;;;;;;;23.10;5.28;;;;;;;;;;5059878;28;20025;-95
2021/09/11 08:53:29;;;;;;;22.50;5.05;;;;;;;;;;5059903;28;20024;-96
2021/09/11 08:55:58;;;;;;;21.98;4.13;;;;;;;;;;5059990;28;20076;-95
2021/09/11 08:58:26;;;;;;;15.68;2.97;;;;;;;;;;5060272;28;20025;-96
2021/09/11 09:01:10;;;;;;;11.23;3.50;;;;;;;;;;5060454;28;20359;-95
2021/09/11 09:03:38;;;;;;;14.93;3.97;;;;;;;;;;5059708;28;20024;-95
2021/09/11 09:06:16;;;;;;;15.23;4.32;;;;;;;;;;5060057;28;20085;-95
2021/09/11 09:08:58;;;;;;;10.43;2.30;;;;;;;;;;5060159;28;20484;-96
2021/09/11 09:11:28;;;;;;;14.88;2.85;;;;;;;;;;5075775;28;20029;-96
2021/09/11 09:13:57;;;;;;;12.02;2.70;;;;;;;;;;5064241;28;20469;-96
2021/09/11 09:16:28;;;;;;;16.63;2.95;;;;;;;;;;5067504;28;20074;-96
2021/09/11 09:18:55;;;;;;;13.80;2.92;;;;;;;;;;5075928;22;20131;-74
2021/09/11 09:21:24;;;;;;;10.38;3.03;;;;;;;;;;5046065;28;20510;-74
2021/09/11 09:23:51;;;;;;;18.85;4.68;;;;;;;;;;5062040;28;20029;-72
2021/09/11 09:26:18;;;;;;;8.02;2.30;;;;;;;;;;5060269;28;20008;-74
2021/09/11 09:28:58;;;;;;;10.43;2.72;;;;;;;;;;5064070;28;20056;-74
2021/09/11 09:31:24;;;;;;;12.50;2.70;;;;;;;;;;5063794;28;20013;-74
2021/09/11 09:33:51;;;;;;;13.73;3.10;;;;;;;;;;5062163;28;20028;-73
2021/09/11 09:36:17;;;;;;;18.40;3.45;;;;;;;;;;5064320;28;20031;-73
2021/09/11 09:38:46;;;;;;;13.35;3.22;;;;;;;;;;5064197;28;20043;-72
2021/09/11 09:41:13;;;;;;;17.63;3.65;;;;;;;;;;5062767;28;20025;-72
2021/09/11 09:43:42;;;;;;;15.48;3.40;;;;;;;;;;5063753;28;20396;-72
2021/09/11 09:46:11;;;;;;;15.30;3.70;;;;;;;;;;5063713;28;20035;-72
2021/09/11 09:48:38;;;;;;;15.13;2.95;;;;;;;;;;5063666;28;20021;-72
2021/09/11 09:51:05;;;;;;;14.75;2.58;;;;;;;;;;5064072;28;20107;-71
2021/09/11 09:53:41;;;;;;;15.35;2.53;;;;;;;;;;5063892;28;20476;-73
2021/09/11 09:56:07;;;;;;;13.52;2.67;;;;;;;;;;5061878;28;20016;-72
2021/09/11 09:58:34;;;;;;;12.30;2.72;;;;;;;;;;5063847;28;20714;-73
2021/09/11 10:01:00;;;;;;;9.82;3.17;;;;;;;;;;5063366;28;20032;-72
2021/09/11 10:03:27;;;;;;;12.45;2.60;;;;;;;;;;5063629;28;20163;-72
2021/09/11 10:05:55;;;;;;;8.98;2.60;;;;;;;;;;5064144;28;20028;-72
2021/09/11 10:08:21;;;;;;;15.85;2.97;;;;;;;;;;5056959;28;20029;-71
2021/09/11 10:10:48;;;;;;;11.88;3.05;;;;;;;;;;5063821;28;20356;-72
2021/09/11 10:13:16;;;;;;;13.68;2.33;;;;;;;;;;5063345;28;20021;-72
2021/09/11 10:15:56;;;;;;;11.48;2.88;;;;;;;;;;5063205;28;20017;-72
2021/09/11 10:18:35;;;;;;;12.50;2.42;;;;;;;;;;5062052;28;20067;-72
2021/09/11 10:21:23;;;;;;;25.63;5.22;;;;;;;;;;5050262;28;20028;-73
2021/09/11 10:23:55;;;;;;;9.80;2.25;;;;;;;;;;5062768;28;20431;-71
2021/09/11 10:26:40;;;;;;;15.20;3.53;;;;;;;;;;5062624;28;20078;-71
2021/09/11 10:29:26;;;;;;;8.32;2.60;;;;;;;;;;5059981;28;20073;-73
2021/09/11 10:31:56;;;;;;;8.82;2.30;;;;;;;;;;5062979;28;20020;-73
2021/09/11 10:34:44;;;;;;;13.20;3.25;;;;;;;;;;5060763;28;20077;-71
2021/09/11 10:37:10;;;;;;;14.50;3.53;;;;;;;;;;5060699;28;20043;-71
2021/09/11 10:39:37;;;;;;;8.68;2.70;;;;;;;;;;5050980;28;20036;-73
2021/09/11 10:42:07;;;;;;;21.13;3.65;;;;;;;;;;5046345;28;20416;-73
2021/09/11 10:44:33;;;;;;;10.38;3.75;;;;;;;;;;5061295;28;20501;-73
2021/09/11 10:47:00;;;;;;;20.50;5.15;;;;;;;;;;5061920;28;20032;-73
2021/09/11 10:49:29;;;;;;;20.42;6.20;;;;;;;;;;5059367;28;20492;-72
2021/09/11 10:52:08;;;;;;;23.00;6.53;;;;;;;;;;5044604;28;20115;-73
2021/09/11 10:54:40;;;;;;;15.75;5.72;;;;;;;;;;5045001;28;20029;-73
2021/09/11 10:57:09;;;;;;;15.00;4.90;;;;;;;;;;5060188;28;20112;-73
2021/09/11 10:59:37;;;;;;;22.38;4.63;;;;;;;;;;5058937;28;20037;-73
2021/09/11 11:02:10;;;;;;;15.13;4.30;;;;;;;;;;5058921;28;20032;-73
2021/09/11 11:04:52;;;;;;;12.98;4.10;;;;;;;;;;5059254;28;20031;-73
2021/09/11 11:07:18;;;;;;;18.02;4.45;;;;;;;;;;5060118;28;20020;-72
2021/09/11 11:09:52;;;;;;;17.00;4.20;;;;;;;;;;5059806;28;20060;-72
2021/09/11 11:12:23;;;;;;;10.77;3.30;;;;;;;;;;5056133;28;20023;-72
2021/09/11 11:14:49;;;;;;;12.18;3.78;;;;;;;;;;5059584;28;20704;-72
2021/09/11 11:17:16;;;;;;;12.70;3.13;;;;;;;;;;5059001;28;20553;-73
2021/09/11 11:19:45;;;;;;;11.65;3.20;;;;;;;;;;5059176;28;20840;-72
2021/09/11 11:22:12;;;;;;;16.00;3.47;;;;;;;;;;5059182;28;20119;-72
2021/09/11 11:24:42;;;;;;;12.25;3.78;;;;;;;;;;5036365;28;20357;-73
2021/09/11 11:27:09;;;;;;;8.77;4.07;;;;;;;;;;5054784;28;20020;-73
2021/09/11 11:29:35;;;;;;;13.57;4.03;;;;;;;;;;5059150;28;20373;-73
2021/09/11 11:32:03;;;;;;;14.13;4.63;;;;;;;;;;5054730;28;20387;-73
2021/09/11 11:34:29;;;;;;;11.60;3.80;;;;;;;;;;5057673;28;20042;-72
2021/09/11 11:36:56;;;;;;;12.98;4.03;;;;;;;;;;5057934;28;20637;-71
2021/09/11 11:39:32;;;;;;;13.43;3.47;;;;;;;;;;5058799;28;20531;-72
2021/09/11 11:41:59;;;;;;;10.48;3.78;;;;;;;;;;5058248;28;20040;-71
2021/09/11 11:44:25;;;;;;;8.05;3.38;;;;;;;;;;5058687;28;20044;-72
2021/09/11 11:46:57;;;;;;;7.53;3.70;;;;;;;;;;5049332;28;20024;-71
2021/09/11 11:49:23;;;;;;;7.53;2.97;;;;;;;;;;5056990;28;20062;-72
2021/09/11 11:51:54;;;;;;;12.63;3.38;;;;;;;;;;5059379;28;20108;-72
2021/09/11 11:54:20;;;;;;;9.82;4.20;;;;;;;;;;5058415;28;20044;-72
2021/09/11 11:56:47;;;;;;;12.52;4.03;;;;;;;;;;5058446;28;20766;-73
2021/09/11 11:59:13;;;;;;;9.38;3.65;;;;;;;;;;5058852;28;20116;-72
2021/09/11 12:01:39;;;;;;;14.88;3.53;;;;;;;;;;5039679;28;20036;-72
2021/09/11 12:04:15;;;;;;;18.75;3.53;;;;;;;;;;5059142;28;20025;-73
2021/09/11 12:06:47;;;;;;;20.88;4.65;;;;;;;;;;5058656;28;20178;-72
2021/09/11 12:09:15;;;;;;;14.50;3.75;;;;;;;;;;5058214;28;20027;-72
2021/09/11 12:11:41;;;;;;;25.10;6.63;;;;;;;;;;5057954;28;20033;-72
2021/09/11 12:14:08;;;;;;;14.15;4.45;;;;;;;;;;5059974;28;20628;-74
2021/09/11 12:16:34;;;;;;;19.63;4.32;;;;;;;;;;5056419;28;20028;-73
2021/09/11 12:19:20;;;;;;;15.00;3.65;;;;;;;;;;5043673;28;20039;-73
2021/09/11 12:21:47;;;;;;;9.55;3.35;;;;;;;;;;5062754;28;20056;-74
2021/09/11 12:24:20;;;;;;;24.35;5.78;;;;;;;;;;5060901;28;20202;-73
2021/09/11 12:26:47;;;;;;;24.50;5.35;;;;;;;;;;5057976;28;20029;-72
2021/09/11 12:29:15;;;;;;;18.38;3.78;;;;;;;;;;5061879;28;20843;-73
2021/09/11 12:31:51;;;;;;;8.45;3.70;;;;;;;;;;5062309;28;20542;-71
2021/09/11 12:34:18;;;;;;;13.15;3.55;;;;;;;;;;5052274;28;20089;-71
2021/09/11 12:36:48;;;;;;;12.82;3.45;;;;;;;;;;5062809;28;20021;-71
2021/09/11 12:39:30;;;;;;;6.70;2.90;;;;;;;;;;5059426;28;20028;-72
2021/09/11 12:41:57;;;;;;;7.35;3.53;;;;;;;;;;5052726;28;20032;-71
2021/09/11 12:44:25;;;;;;;15.35;4.25;;;;;;;;;;5055755;28;20480;-74
2021/09/11 12:46:54;;;;;;;10.88;3.83;;;;;;;;;;5046787;28;20103;-74
2021/09/11 12:49:22;;;;;;;7.38;2.58;;;;;;;;;;5064439;28;20059;-74
2021/09/11 12:51:48;;;;;;;10.07;3.95;;;;;;;;;;5063098;28;20100;-73
2021/09/11 12:54:15;;;;;;;7.10;2.95;;;;;;;;;;5064075;28;20039;-74
2021/09/11 12:56:42;;;;;;;9.60;3.25;;;;;;;;;;5064512;28;20016;-74
2021/09/11 12:59:08;;;;;;;7.28;2.90;;;;;;;;;;5064332;28;20028;-74
2021/09/11 13:01:38;;;;;;;9.38;3.25;;;;;;;;;;5064126;28;20487;-75
2021/09/11 13:04:06;;;;;;;10.00;2.97;;;;;;;;;;5062595;28;20059;-75
2021/09/11 13:06:33;;;;;;;13.50;3.67;;;;;;;;;;5063619;28;20495;-74
2021/09/11 13:09:00;;;;;;;10.98;3.30;;;;;;;;;;5061437;28;20437;-75
2021/09/11 13:11:26;;;;;;;7.18;2.85;;;;;;;;;;5054681;28;20032;-75
2021/09/11 13:13:52;;;;;;;7.68;3.30;;;;;;;;;;5060054;28;20028;-75
2021/09/11 13:16:19;;;;;;;11.43;3.92;;;;;;;;;;5061805;28;20056;-74
2021/09/11 13:18:46;;;;;;;12.82;3.70;;;;;;;;;;5061375;28;20072;-74
2021/09/11 13:21:13;;;;;;;10.63;3.15;;;;;;;;;;5059713;28;20025;-74
2021/09/11 13:23:40;;;;;;;8.20;3.35;;;;;;;;;;5060693;28;20025;-74
2021/09/11 13:26:07;;;;;;;11.27;2.78;;;;;;;;;;5056453;28;20039;-75
2021/09/11 13:28:33;;;;;;;11.57;2.95;;;;;;;;;;5049514;28;20055;-75
2021/09/11 13:31:00;;;;;;;7.50;2.60;;;;;;;;;;5060353;28;20600;-75
2021/09/11 13:33:26;;;;;;;9.50;3.30;;;;;;;;;;5058582;28;20090;-75
2021/09/11 13:35:52;;;;;;;11.75;3.38;;;;;;;;;;5058149;28;20024;-75
2021/09/11 13:38:19;;;;;;;10.43;2.60;;;;;;;;;;5061343;28;20024;-75
2021/09/11 13:40:45;;;;;;;7.63;2.70;;;;;;;;;;5063170;28;20024;-74
2021/09/11 13:43:11;;;;;;;6.80;2.58;;;;;;;;;;5056077;28;20024;-74
2021/09/11 13:45:38;;;;;;;15.48;3.65;;;;;;;;;;5057555;28;20375;-74
2021/09/11 13:48:04;;;;;;;5.60;2.88;;;;;;;;;;5056433;28;20031;-74
2021/09/11 13:50:31;;;;;;;5.28;2.70;;;;;;;;;;5062518;28;20024;-73
2021/09/11 13:52:57;;;;;;;8.32;2.78;;;;;;;;;;5057078;28;20108;-74
2021/09/11 13:55:23;;;;;;;7.75;2.75;;;;;;;;;;5063153;28;20021;-74
2021/09/11 13:57:49;;;;;;;9.45;3.00;;;;;;;;;;5063213;28;20021;-74
2021/09/11 14:00:16;;;;;;;6.20;2.47;;;;;;;;;;5055861;28;20052;-74
2021/09/11 14:02:42;;;;;;;4.93;2.20;;;;;;;;;;5062832;28;20120;-75
2021/09/11 14:05:08;;;;;;;6.00;2.10;;;;;;;;;;5061300;28;20025;-74
2021/09/11 14:07:34;;;;;;;7.25;3.00;;;;;;;;;;5062845;28;20028;-74
2021/09/11 14:10:01;;;;;;;5.45;2.22;;;;;;;;;;5050041;28;20118;-74
2021/09/11 14:12:27;;;;;;;10.07;2.70;;;;;;;;;;5062550;28;20032;-75
2021/09/11 14:14:53;;;;;;;5.50;2.85;;;;;;;;;;5057336;28;20021;-74
2021/09/11 14:17:19;;;;;;;6.18;2.47;;;;;;;;;;5048795;28;20020;-75
2021/09/11 14:19:45;;;;;;;9.57;2.97;;;;;;;;;;5062201;28;20074;-75
2021/09/11 14:22:12;;;;;;;9.55;2.50;;;;;;;;;;5057348;28;20042;-74
2021/09/11 14:24:38;;;;;;;6.63;2.88;;;;;;;;;;5059056;28;20502;-75
2021/09/11 14:27:04;;;;;;;12.90;3.65;;;;;;;;;;5060397;28;20040;-75
2021/09/11 14:29:30;;;;;;;7.15;3.13;;;;;;;;;;5060302;28;20077;-75
2021/09/11 14:31:57;;;;;;;6.75;2.97;;;;;;;;;;5059170;28;20032;-76
2021/09/11 14:34:23;;;;;;;5.72;2.40;;;;;;;;;;5053867;28;20053;-76